createdAt,value
2023-07-02T00:02:17.109Z,100.00
2023-07-02T00:04:44.307Z,100.00
2023-07-02T00:07:10.869Z,100.00
2023-07-02T00:09:38.146Z,100.00
2023-07-02T00:12:04.941Z,100.00
2023-07-02T00:14:31.451Z,100.00
2023-07-02T00:16:58.199Z,100.00
2023-07-02T00:19:24.657Z,100.00
2023-07-02T00:21:51.193Z,100.00
2023-07-02T00:24:17.629Z,100.00
2023-07-02T00:26:44.130Z,100.00
2023-07-02T00:29:10.563Z,100.00
2023-07-02T00:31:37.186Z,100.00
2023-07-02T00:34:05.133Z,100.00
2023-07-02T00:36:32.730Z,100.00
2023-07-02T00:38:59.842Z,100.00
2023-07-02T00:41:27.808Z,100.00
2023-07-02T00:43:55.633Z,100.00
2023-07-02T00:46:26.230Z,100.00
2023-07-02T00:48:54.200Z,100.00
2023-07-02T00:51:25.404Z,100.00
2023-07-02T00:53:53.827Z,100.00
2023-07-02T00:56:20.416Z,100.00
2023-07-02T00:58:49.356Z,100.00
2023-07-02T01:01:17.667Z,100.00
2023-07-02T01:04:01.681Z,100.00
2023-07-02T01:06:33.848Z,100.00
2023-07-02T01:09:03.003Z,100.00
2023-07-02T01:11:32.512Z,100.00
2023-07-02T01:14:06.537Z,100.00
2023-07-02T01:16:35.154Z,100.00
2023-07-02T01:19:05.887Z,100.00
2023-07-02T01:21:33.523Z,100.00
2023-07-02T01:24:03.710Z,100.00
2023-07-02T01:26:34.930Z,100.00
2023-07-02T01:29:22.194Z,100.00
2023-07-02T01:31:49.115Z,100.00
2023-07-02T01:34:16.080Z,100.00
2023-07-02T01:36:42.898Z,100.00
2023-07-02T01:39:09.456Z,100.00
2023-07-02T01:41:50.506Z,100.00
2023-07-02T01:44:17.087Z,100.00
2023-07-02T01:46:44.418Z,100.00
2023-07-02T01:49:10.872Z,100.00
2023-07-02T01:51:37.321Z,100.00
2023-07-02T01:54:03.959Z,100.00
2023-07-02T01:56:30.531Z,100.00
2023-07-02T01:58:56.995Z,100.00
2023-07-02T02:01:23.532Z,100.00
2023-07-02T02:03:50.068Z,100.00
2023-07-02T02:06:16.565Z,100.00
2023-07-02T02:08:43.045Z,100.00
2023-07-02T02:11:09.544Z,100.00
2023-07-02T02:13:36.131Z,100.00
2023-07-02T02:16:02.671Z,100.00
2023-07-02T02:18:29.194Z,100.00
2023-07-02T02:20:55.662Z,100.00
2023-07-02T02:23:22.187Z,100.00
2023-07-02T02:25:48.706Z,100.00
2023-07-02T02:28:15.191Z,100.00
2023-07-02T02:30:41.640Z,100.00
2023-07-02T02:33:08.091Z,100.00
2023-07-02T02:35:34.537Z,100.00
2023-07-02T02:38:04.591Z,100.00
2023-07-02T02:40:31.293Z,100.00
2023-07-02T02:42:57.776Z,100.00
2023-07-02T02:45:24.369Z,100.00
2023-07-02T02:47:50.870Z,100.00
2023-07-02T02:50:17.425Z,100.00
2023-07-02T02:52:44.170Z,100.00
2023-07-02T02:55:11.964Z,100.00
2023-07-02T02:57:38.483Z,100.00
2023-07-02T03:00:06.113Z,100.00
2023-07-02T03:02:32.771Z,100.00
2023-07-02T03:05:03.315Z,100.00
2023-07-02T03:07:30.328Z,100.00
2023-07-02T03:09:56.771Z,100.00
2023-07-02T03:12:25.809Z,100.00
2023-07-02T03:14:55.538Z,100.00
2023-07-02T03:17:22.928Z,100.00
2023-07-02T03:19:49.816Z,100.00
2023-07-02T03:22:16.597Z,100.00
2023-07-02T03:24:43.043Z,100.00
2023-07-02T03:27:09.614Z,100.00
2023-07-02T03:29:36.819Z,100.00
2023-07-02T03:32:03.356Z,100.00
2023-07-02T03:34:29.803Z,100.00
2023-07-02T03:36:56.244Z,100.00
2023-07-02T03:39:22.837Z,100.00
2023-07-02T03:41:49.343Z,100.00
2023-07-02T03:44:15.913Z,100.00
2023-07-02T03:46:42.471Z,100.00
2023-07-02T03:49:09.146Z,100.00
2023-07-02T03:51:35.668Z,100.00
2023-07-02T03:54:02.288Z,100.00
2023-07-02T03:56:28.756Z,100.00
2023-07-02T03:58:55.278Z,100.00
2023-07-02T04:01:21.795Z,100.00
2023-07-02T04:03:53.403Z,100.00
2023-07-02T04:06:20.285Z,100.00
2023-07-02T04:08:47.034Z,100.00
2023-07-02T04:11:13.770Z,100.00
2023-07-02T04:13:41.017Z,100.00
2023-07-02T04:16:08.023Z,100.00
2023-07-02T04:18:34.630Z,100.00
2023-07-02T04:21:02.612Z,100.00
2023-07-02T04:23:29.219Z,100.00
2023-07-02T04:26:04.082Z,100.00
2023-07-02T04:28:42.742Z,100.00
2023-07-02T04:31:09.252Z,100.00
2023-07-02T04:33:37.186Z,100.00
2023-07-02T04:36:04.869Z,100.00
2023-07-02T04:38:31.530Z,100.00
2023-07-02T04:41:06.223Z,100.00
2023-07-02T04:43:34.222Z,100.00
2023-07-02T04:46:01.777Z,100.00
2023-07-02T04:48:28.876Z,100.00
2023-07-02T04:50:55.407Z,100.00
2023-07-02T04:53:21.852Z,100.00
2023-07-02T04:55:48.322Z,100.00
2023-07-02T04:58:14.852Z,100.00
2023-07-02T05:00:41.309Z,100.00
2023-07-02T05:03:10.679Z,100.00
2023-07-02T05:05:37.176Z,100.00
2023-07-02T05:08:05.876Z,100.00
2023-07-02T05:10:32.673Z,100.00
2023-07-02T05:12:59.138Z,100.00
2023-07-02T05:15:27.846Z,100.00
2023-07-02T05:17:54.735Z,100.00
2023-07-02T05:20:33.394Z,100.00
2023-07-02T05:22:59.947Z,100.00
2023-07-02T05:25:26.423Z,100.00
2023-07-02T05:27:54.056Z,100.00
2023-07-02T05:30:20.740Z,100.00
2023-07-02T05:32:47.203Z,100.00
2023-07-02T05:35:13.840Z,100.00
2023-07-02T05:37:43.145Z,100.00
2023-07-02T05:40:09.966Z,100.00
2023-07-02T05:42:45.867Z,100.00
2023-07-02T05:45:13.201Z,100.00
2023-07-02T05:47:39.990Z,100.00
2023-07-02T05:50:08.425Z,100.00
2023-07-02T05:52:37.188Z,100.00
2023-07-02T05:55:04.412Z,100.00
2023-07-02T05:57:41.080Z,100.00
2023-07-02T06:00:17.085Z,100.00
2023-07-02T06:02:44.055Z,100.00
2023-07-02T06:05:13.966Z,100.00
2023-07-02T06:07:40.492Z,100.00
2023-07-02T06:10:12.216Z,100.00
2023-07-02T06:12:39.553Z,100.00
2023-07-02T06:15:06.543Z,100.00
2023-07-02T06:17:35.347Z,100.00
2023-07-02T06:20:05.837Z,100.00
2023-07-02T06:22:32.525Z,100.00
2023-07-02T06:25:05.999Z,100.00
2023-07-02T06:27:32.961Z,100.00
2023-07-02T06:29:59.518Z,100.00
2023-07-02T06:32:33.850Z,100.00
2023-07-02T06:35:00.744Z,100.00
2023-07-02T06:37:33.791Z,100.00
2023-07-02T06:40:00.775Z,100.00
2023-07-02T06:42:39.178Z,100.00
2023-07-02T06:45:07.593Z,100.00
2023-07-02T06:47:43.499Z,100.00
2023-07-02T06:50:10.088Z,100.00
2023-07-02T06:52:37.541Z,100.00
2023-07-02T06:55:05.569Z,100.00
2023-07-02T06:57:32.029Z,100.00
2023-07-02T07:00:00.476Z,100.00
2023-07-02T07:02:28.199Z,100.00
2023-07-02T07:04:54.769Z,100.00
2023-07-02T07:07:21.569Z,100.00
2023-07-02T07:09:48.104Z,100.00
2023-07-02T07:12:14.533Z,100.00
2023-07-02T07:14:41.001Z,100.00
2023-07-02T07:17:07.646Z,100.00
2023-07-02T07:19:34.129Z,100.00
2023-07-02T07:22:00.704Z,100.00
2023-07-02T07:24:27.169Z,100.00
2023-07-02T07:26:53.653Z,100.00
2023-07-02T07:29:20.228Z,100.00
2023-07-02T07:31:47.481Z,100.00
2023-07-02T07:34:14.067Z,100.00
2023-07-02T07:36:40.597Z,100.00
2023-07-02T07:39:07.135Z,100.00
2023-07-02T07:41:33.798Z,100.00
2023-07-02T07:44:01.139Z,100.00
2023-07-02T07:46:27.601Z,100.00
2023-07-02T07:48:55.093Z,100.00
2023-07-02T07:51:21.570Z,100.00
2023-07-02T07:53:48.014Z,100.00
2023-07-02T07:56:14.464Z,100.00
2023-07-02T07:58:40.972Z,100.00
2023-07-02T08:01:07.522Z,100.00
2023-07-02T08:03:34.017Z,100.00
2023-07-02T08:06:00.542Z,100.00
2023-07-02T08:08:27.038Z,100.00
2023-07-02T08:10:53.603Z,100.00
2023-07-02T08:13:20.071Z,100.00
2023-07-02T08:15:46.553Z,100.00
2023-07-02T08:18:14.349Z,100.00
2023-07-02T08:20:40.908Z,100.00
2023-07-02T08:23:07.393Z,100.00
2023-07-02T08:25:33.910Z,100.00
2023-07-02T08:28:00.495Z,100.00
2023-07-02T08:30:27.094Z,100.00
2023-07-02T08:32:55.363Z,100.00
2023-07-02T08:35:22.056Z,100.00
2023-07-02T08:37:49.781Z,100.00
2023-07-02T08:40:20.273Z,100.00
2023-07-02T08:42:50.852Z,100.00
2023-07-02T08:45:17.938Z,100.00
2023-07-02T08:47:48.900Z,100.00
2023-07-02T08:50:15.484Z,100.00
2023-07-02T08:52:43.908Z,100.00
2023-07-02T08:55:10.482Z,100.00
2023-07-02T08:57:37.384Z,100.00
2023-07-02T09:00:11.302Z,100.00
2023-07-02T09:02:37.958Z,100.00
2023-07-02T09:05:05.574Z,100.00
2023-07-02T09:07:32.207Z,100.00
2023-07-02T09:09:58.820Z,100.00
2023-07-02T09:12:30.691Z,100.00
2023-07-02T09:15:07.655Z,100.00
2023-07-02T09:17:38.030Z,100.00
2023-07-02T09:20:09.106Z,100.00
2023-07-02T09:22:36.517Z,100.00
2023-07-02T09:25:03.866Z,100.00
2023-07-02T09:27:37.592Z,100.00
2023-07-02T09:30:16.542Z,100.00
2023-07-02T09:32:44.677Z,100.00
2023-07-02T09:35:11.709Z,100.00
2023-07-02T09:37:40.277Z,100.00
2023-07-02T09:40:10.152Z,100.00
2023-07-02T09:42:39.533Z,100.00
2023-07-02T09:45:09.557Z,100.00
2023-07-02T09:47:46.338Z,100.00
2023-07-02T09:50:15.785Z,100.00
2023-07-02T09:52:42.960Z,100.00
2023-07-02T09:55:12.229Z,100.00
2023-07-02T09:57:40.710Z,100.00
2023-07-02T10:00:08.923Z,100.00
2023-07-02T10:02:37.107Z,100.00
2023-07-02T10:05:04.098Z,100.00
2023-07-02T10:07:33.311Z,100.00
2023-07-02T10:09:59.987Z,100.00
2023-07-02T10:12:27.717Z,100.00
2023-07-02T10:14:56.213Z,100.00
2023-07-02T10:17:30.267Z,100.00
2023-07-02T10:19:58.786Z,100.00
2023-07-02T10:22:25.358Z,100.00
2023-07-02T10:24:58.522Z,100.00
2023-07-02T10:27:42.021Z,100.00
2023-07-02T10:30:10.751Z,100.00
2023-07-02T10:32:39.585Z,100.00
2023-07-02T10:35:19.551Z,100.00
2023-07-02T10:37:46.722Z,100.00
2023-07-02T10:40:14.224Z,100.00
2023-07-02T10:42:51.818Z,100.00
2023-07-02T10:45:19.591Z,100.00
2023-07-02T10:47:47.205Z,100.00
2023-07-02T10:50:18.152Z,100.00
2023-07-02T10:52:44.780Z,100.00
2023-07-02T10:55:11.295Z,100.00
2023-07-02T10:57:37.721Z,100.00
2023-07-02T11:00:09.144Z,100.00
2023-07-02T11:02:37.540Z,100.00
2023-07-02T11:05:08.548Z,100.00
2023-07-02T11:07:38.161Z,100.00
2023-07-02T11:10:05.637Z,100.00
2023-07-02T11:12:35.148Z,100.00
2023-07-02T11:15:21.600Z,100.00
2023-07-02T11:17:48.268Z,100.00
2023-07-02T11:20:19.894Z,100.00
2023-07-02T11:22:49.240Z,100.00
2023-07-02T11:25:23.247Z,100.00
2023-07-02T11:27:49.892Z,100.00
2023-07-02T11:30:17.109Z,100.00
2023-07-02T11:32:52.334Z,100.00
2023-07-02T11:35:20.281Z,100.00
2023-07-02T11:37:47.522Z,99.67
2023-07-02T11:40:20.243Z,99.15
2023-07-02T11:42:49.105Z,100.00
2023-07-02T11:45:15.712Z,100.00
2023-07-02T11:47:42.382Z,100.00
2023-07-02T11:50:24.736Z,100.00
2023-07-02T11:52:56.164Z,100.00
2023-07-02T11:55:23.100Z,100.00
2023-07-02T11:57:50.857Z,100.00
2023-07-02T12:00:17.777Z,100.00
2023-07-02T12:02:44.414Z,100.00
2023-07-02T12:05:13.069Z,100.00
2023-07-02T12:07:40.065Z,100.00
2023-07-02T12:10:08.469Z,100.00
2023-07-02T12:12:36.792Z,99.47
2023-07-02T12:15:03.880Z,96.55
2023-07-02T12:17:36.939Z,97.20
2023-07-02T12:20:04.249Z,99.46
2023-07-02T12:22:30.787Z,100.00
2023-07-02T12:24:58.565Z,100.00
2023-07-02T12:27:28.192Z,100.00
2023-07-02T12:29:54.842Z,100.00
2023-07-02T12:32:21.913Z,99.50
2023-07-02T12:34:51.302Z,99.52
2023-07-02T12:37:20.034Z,98.91
2023-07-02T12:39:46.910Z,97.80
2023-07-02T12:42:13.765Z,98.81
2023-07-02T12:44:50.084Z,98.90
2023-07-02T12:47:16.728Z,99.39
2023-07-02T12:49:43.187Z,97.47
2023-07-02T12:52:09.672Z,97.20
2023-07-02T12:54:36.200Z,98.30
2023-07-02T12:57:11.776Z,97.14
2023-07-02T12:59:38.551Z,98.08
2023-07-02T13:02:22.644Z,98.89
2023-07-02T13:04:49.889Z,97.04
2023-07-02T13:07:17.154Z,97.82
2023-07-02T13:09:43.891Z,94.89
2023-07-02T13:12:12.242Z,94.63
2023-07-02T13:14:39.784Z,96.10
2023-07-02T13:17:06.608Z,96.75
2023-07-02T13:19:39.510Z,95.40
2023-07-02T13:22:06.440Z,96.13
2023-07-02T13:24:38.970Z,96.32
2023-07-02T13:27:10.214Z,94.99
2023-07-02T13:29:36.979Z,96.77
2023-07-02T13:32:15.279Z,96.95
2023-07-02T13:34:41.745Z,97.33
2023-07-02T13:37:09.304Z,96.58
2023-07-02T13:39:35.813Z,95.13
2023-07-02T13:42:02.545Z,95.70
2023-07-02T13:44:29.242Z,95.76
2023-07-02T13:46:56.562Z,95.59
2023-07-02T13:49:23.312Z,94.61
2023-07-02T13:51:53.036Z,93.84
2023-07-02T13:54:20.068Z,95.38
2023-07-02T13:56:50.236Z,95.35
2023-07-02T13:59:18.689Z,96.16
2023-07-02T14:01:52.453Z,96.21
2023-07-02T14:04:20.684Z,94.19
2023-07-02T14:06:47.460Z,94.47
2023-07-02T14:09:14.379Z,94.61
2023-07-02T14:11:42.649Z,94.94
2023-07-02T14:14:10.052Z,94.54
2023-07-02T14:16:36.893Z,95.04
2023-07-02T14:19:09.623Z,95.31
2023-07-02T14:21:36.480Z,95.54
2023-07-02T14:24:03.256Z,95.23
2023-07-02T14:26:31.099Z,95.44
2023-07-02T14:28:59.258Z,93.94
2023-07-02T14:31:25.882Z,94.11
2023-07-02T14:33:52.432Z,94.54
2023-07-02T14:36:19.277Z,94.38
2023-07-02T14:38:46.019Z,94.59
2023-07-02T14:41:12.518Z,93.90
2023-07-02T14:43:39.232Z,93.08
2023-07-02T14:46:05.864Z,91.13
2023-07-02T14:48:32.764Z,91.97
2023-07-02T14:51:01.028Z,91.35
2023-07-02T14:53:28.652Z,92.74
2023-07-02T14:56:03.395Z,94.17
2023-07-02T14:58:32.596Z,94.71
2023-07-02T15:01:00.044Z,94.26
2023-07-02T15:03:28.162Z,94.17
2023-07-02T15:05:55.490Z,92.87
2023-07-02T15:08:22.567Z,92.33
2023-07-02T15:10:55.822Z,94.25
2023-07-02T15:13:24.916Z,93.91
2023-07-02T15:15:52.410Z,94.70
2023-07-02T15:18:21.123Z,94.23
2023-07-02T15:20:51.853Z,93.74
2023-07-02T15:23:18.367Z,93.92
2023-07-02T15:25:51.863Z,94.73
2023-07-02T15:28:18.862Z,94.94
2023-07-02T15:30:45.396Z,94.19
2023-07-02T15:33:11.999Z,94.47
2023-07-02T15:35:38.455Z,93.57
2023-07-02T15:38:05.053Z,93.33
2023-07-02T15:40:32.230Z,92.26
2023-07-02T15:42:58.778Z,93.78
2023-07-02T15:45:26.455Z,94.35
2023-07-02T15:47:53.116Z,93.41
2023-07-02T15:50:19.700Z,93.90
2023-07-02T15:52:46.224Z,93.93
2023-07-02T15:55:12.812Z,93.49
2023-07-02T15:57:39.265Z,93.07
2023-07-02T16:00:07.076Z,92.51
2023-07-02T16:02:36.871Z,92.81
2023-07-02T16:05:10.595Z,92.76
2023-07-02T16:07:37.288Z,92.14
2023-07-02T16:10:06.118Z,92.97
2023-07-02T16:12:41.452Z,92.87
2023-07-02T16:15:08.383Z,91.13
2023-07-02T16:17:35.083Z,90.60
2023-07-02T16:20:01.887Z,91.48
2023-07-02T16:22:31.342Z,90.76
2023-07-02T16:24:57.951Z,90.98
2023-07-02T16:27:24.465Z,91.78
2023-07-02T16:29:57.156Z,91.98
2023-07-02T16:32:30.448Z,93.80
2023-07-02T16:35:04.368Z,94.11
2023-07-02T16:37:30.909Z,93.78
2023-07-02T16:39:57.427Z,94.68
2023-07-02T16:42:24.060Z,96.62
2023-07-02T16:44:50.682Z,95.51
2023-07-02T16:47:20.091Z,95.25
2023-07-02T16:49:47.648Z,96.66
2023-07-02T16:52:14.195Z,94.85
2023-07-02T16:54:40.749Z,94.62
2023-07-02T16:57:07.517Z,95.30
2023-07-02T16:59:38.490Z,94.38
2023-07-02T17:02:10.098Z,93.90
2023-07-02T17:04:36.689Z,94.74
2023-07-02T17:07:03.384Z,93.95
2023-07-02T17:09:35.511Z,94.56
2023-07-02T17:12:04.385Z,95.70
2023-07-02T17:14:34.299Z,96.09
2023-07-02T17:17:03.498Z,95.78
2023-07-02T17:19:36.014Z,95.30
2023-07-02T17:22:05.163Z,94.47
2023-07-02T17:24:34.570Z,93.74
2023-07-02T17:27:02.353Z,93.84
2023-07-02T17:29:32.360Z,93.13
2023-07-02T17:32:01.827Z,92.74
2023-07-02T17:34:30.103Z,93.86
2023-07-02T17:36:58.938Z,93.89
2023-07-02T17:39:27.807Z,93.15
2023-07-02T17:41:55.740Z,94.99
2023-07-02T17:44:28.081Z,95.96
2023-07-02T17:47:01.273Z,96.93
2023-07-02T17:49:29.177Z,97.74
2023-07-02T17:51:56.066Z,97.49
2023-07-02T17:54:23.633Z,98.33
2023-07-02T17:56:51.869Z,98.14
2023-07-02T17:59:19.532Z,97.35
2023-07-02T18:01:51.324Z,97.19
2023-07-02T18:04:18.989Z,98.37
2023-07-02T18:06:47.061Z,98.83
2023-07-02T18:09:16.630Z,99.21
2023-07-02T18:11:43.491Z,99.17
2023-07-02T18:14:10.293Z,100.00
2023-07-02T18:16:36.970Z,100.00
2023-07-02T18:19:03.600Z,100.00
2023-07-02T18:21:30.974Z,100.00
2023-07-02T18:23:59.408Z,100.00
2023-07-02T18:26:26.052Z,100.00
2023-07-02T18:28:52.638Z,100.00
2023-07-02T18:31:20.053Z,100.00
2023-07-02T18:33:46.722Z,100.00
2023-07-02T18:36:16.079Z,100.00
2023-07-02T18:38:42.975Z,100.00
2023-07-02T18:41:11.456Z,100.00
2023-07-02T18:43:38.416Z,100.00
2023-07-02T18:46:06.341Z,100.00
2023-07-02T18:48:33.603Z,100.00
2023-07-02T18:51:00.072Z,100.00
2023-07-02T18:53:26.599Z,100.00
2023-07-02T18:56:01.335Z,100.00
2023-07-02T18:58:28.916Z,100.00
2023-07-02T19:00:55.608Z,100.00
2023-07-02T19:03:22.566Z,100.00
2023-07-02T19:05:50.843Z,100.00
2023-07-02T19:08:19.273Z,100.00
2023-07-02T19:10:46.717Z,100.00
2023-07-02T19:13:14.626Z,100.00
2023-07-02T19:15:41.332Z,100.00
2023-07-02T19:18:08.282Z,100.00
2023-07-02T19:20:35.723Z,100.00
2023-07-02T19:23:02.272Z,100.00
2023-07-02T19:25:28.791Z,100.00
2023-07-02T19:27:55.311Z,100.00
2023-07-02T19:30:21.802Z,100.00
2023-07-02T19:32:48.510Z,100.00
2023-07-02T19:35:16.965Z,100.00
2023-07-02T19:37:43.413Z,100.00
2023-07-02T19:40:10.143Z,100.00
2023-07-02T19:42:36.689Z,100.00
2023-07-02T19:45:04.225Z,100.00
2023-07-02T19:47:31.478Z,100.00
2023-07-02T19:49:59.851Z,100.00
2023-07-02T19:52:28.761Z,100.00
2023-07-02T19:55:15.974Z,100.00
2023-07-02T19:57:42.548Z,100.00
2023-07-02T20:00:09.770Z,100.00
2023-07-02T20:02:37.765Z,100.00
2023-07-02T20:05:08.203Z,100.00
2023-07-02T20:07:35.124Z,100.00
2023-07-02T20:10:01.999Z,100.00
2023-07-02T20:12:31.374Z,100.00
2023-07-02T20:15:00.126Z,100.00
2023-07-02T20:17:29.536Z,100.00
2023-07-02T20:19:57.801Z,100.00
2023-07-02T20:22:24.602Z,100.00
2023-07-02T20:24:51.694Z,100.00
2023-07-02T20:27:21.071Z,100.00
2023-07-02T20:29:52.313Z,100.00
2023-07-02T20:32:20.491Z,100.00
2023-07-02T20:34:50.929Z,100.00
2023-07-02T20:37:22.192Z,100.00
2023-07-02T20:39:49.134Z,100.00
2023-07-02T20:42:19.119Z,100.00
2023-07-02T20:44:52.123Z,100.00
2023-07-02T20:47:20.028Z,100.00
2023-07-02T20:49:50.684Z,100.00
2023-07-02T20:52:18.451Z,100.00
2023-07-02T20:54:45.266Z,100.00
2023-07-02T20:57:12.889Z,100.00
2023-07-02T20:59:39.342Z,100.00
2023-07-02T21:02:05.854Z,100.00
2023-07-02T21:04:32.324Z,100.00
2023-07-02T21:06:58.839Z,100.00
2023-07-02T21:09:27.147Z,100.00
2023-07-02T21:11:53.627Z,100.00
2023-07-02T21:14:20.053Z,100.00
2023-07-02T21:16:49.912Z,100.00
2023-07-02T21:19:17.682Z,100.00
2023-07-02T21:21:47.036Z,100.00
2023-07-02T21:24:14.725Z,100.00
2023-07-02T21:26:41.230Z,100.00
2023-07-02T21:29:07.763Z,100.00
2023-07-02T21:31:34.943Z,100.00
2023-07-02T21:34:02.235Z,100.00
2023-07-02T21:36:28.699Z,100.00
2023-07-02T21:38:55.155Z,100.00
2023-07-02T21:41:21.591Z,100.00
2023-07-02T21:43:48.126Z,100.00
2023-07-02T21:46:14.904Z,100.00
2023-07-02T21:48:41.453Z,100.00
2023-07-02T21:51:07.965Z,100.00
2023-07-02T21:53:34.434Z,100.00
2023-07-02T21:56:00.988Z,100.00
2023-07-02T21:58:27.638Z,100.00
2023-07-02T22:00:54.078Z,100.00
2023-07-02T22:03:20.542Z,100.00
2023-07-02T22:05:52.563Z,100.00
2023-07-02T22:08:19.406Z,100.00
2023-07-02T22:10:46.955Z,100.00
2023-07-02T22:13:13.485Z,100.00
2023-07-02T22:15:40.108Z,100.00
2023-07-02T22:18:06.703Z,100.00
2023-07-02T22:20:35.582Z,100.00
2023-07-02T22:23:03.305Z,100.00
2023-07-02T22:25:29.924Z,100.00
2023-07-02T22:27:56.857Z,100.00
2023-07-02T22:30:23.754Z,100.00
2023-07-02T22:32:50.964Z,100.00
2023-07-02T22:35:18.336Z,100.00
2023-07-02T22:37:46.136Z,100.00
2023-07-02T22:40:16.182Z,100.00
2023-07-02T22:42:43.436Z,100.00
2023-07-02T22:45:12.376Z,100.00
2023-07-02T22:47:39.619Z,100.00
2023-07-02T22:50:07.114Z,100.00
2023-07-02T22:52:35.448Z,100.00
2023-07-02T22:55:02.718Z,100.00
2023-07-02T22:57:32.818Z,100.00
2023-07-02T23:00:01.057Z,100.00
2023-07-02T23:02:29.360Z,100.00
2023-07-02T23:04:55.945Z,100.00
2023-07-02T23:07:22.459Z,100.00
2023-07-02T23:09:48.999Z,100.00
2023-07-02T23:12:15.462Z,100.00
2023-07-02T23:14:41.896Z,100.00
2023-07-02T23:17:08.461Z,100.00
2023-07-02T23:19:35.680Z,100.00
2023-07-02T23:22:02.873Z,100.00
2023-07-02T23:24:30.123Z,100.00
2023-07-02T23:26:56.990Z,100.00
2023-07-02T23:29:25.141Z,100.00
2023-07-02T23:31:51.922Z,100.00
2023-07-02T23:34:18.682Z,100.00
2023-07-02T23:36:48.095Z,100.00
2023-07-02T23:39:15.489Z,100.00
2023-07-02T23:41:42.417Z,100.00
2023-07-02T23:44:10.782Z,100.00
2023-07-02T23:46:39.013Z,100.00
2023-07-02T23:49:05.746Z,100.00
2023-07-02T23:51:32.402Z,100.00
2023-07-02T23:53:58.873Z,100.00
2023-07-02T23:56:25.321Z,100.00
2023-07-02T23:58:51.851Z,100.00
